createdAt,value
2023-05-12T00:05:37.893Z,13.20
2023-05-12T00:15:41.663Z,13.10
2023-05-12T00:25:46.689Z,13.10
2023-05-12T00:35:50.350Z,13.10
2023-05-12T00:45:55.413Z,13.00
2023-05-12T00:55:59.299Z,13.00
2023-05-12T01:06:23.253Z,12.90
2023-05-12T01:16:33.029Z,12.90
2023-05-12T01:26:47.167Z,12.90
2023-05-12T01:36:50.971Z,12.90
2023-05-12T01:46:56.323Z,12.80
2023-05-12T01:56:59.934Z,12.80
2023-05-12T02:07:05.337Z,12.80
2023-05-12T02:17:09.034Z,12.80
2023-05-12T02:27:13.988Z,12.70
2023-05-12T02:37:17.633Z,12.70
2023-05-12T02:47:22.678Z,12.70
2023-05-12T02:57:32.807Z,12.70
2023-05-12T03:07:37.902Z,12.60
2023-05-12T03:17:43.001Z,12.50
2023-05-12T03:27:48.129Z,12.40
2023-05-12T03:37:51.751Z,12.30
2023-05-12T03:47:56.778Z,12.20
2023-05-12T03:58:01.317Z,13.20
2023-05-12T04:08:06.430Z,12.10
2023-05-12T04:18:10.119Z,12.00
2023-05-12T04:28:16.068Z,12.10
2023-05-12T04:38:19.693Z,12.10
2023-05-12T04:48:24.672Z,12.20
2023-05-12T04:58:28.346Z,12.30
2023-05-12T05:08:33.402Z,12.40
2023-05-12T05:18:37.767Z,12.50
2023-05-12T05:28:42.932Z,12.50
2023-05-12T05:38:46.794Z,12.50
2023-05-12T05:48:51.857Z,12.50
2023-05-12T05:58:55.498Z,12.70
2023-05-12T06:09:00.557Z,12.90
2023-05-12T06:19:04.475Z,13.10
2023-05-12T06:29:09.541Z,13.20
2023-05-12T06:39:13.348Z,13.40
2023-05-12T06:49:18.363Z,13.60
2023-05-12T06:59:21.981Z,13.80
2023-05-12T07:09:26.953Z,13.80
2023-05-12T07:19:30.608Z,13.70
2023-05-12T07:29:35.883Z,13.70
2023-05-12T07:39:39.672Z,13.60
2023-05-12T07:49:44.605Z,13.50
2023-05-12T07:59:48.226Z,13.60
2023-05-12T08:09:54.487Z,13.90
2023-05-12T08:19:58.220Z,14.10
2023-05-12T08:30:03.300Z,14.40
2023-05-12T08:40:17.738Z,14.40
2023-05-12T08:50:24.001Z,14.40
2023-05-12T09:00:31.104Z,14.80
2023-05-12T09:10:36.826Z,14.80
2023-05-12T09:20:40.582Z,14.80
2023-05-12T09:30:45.662Z,15.00
2023-05-12T09:40:49.725Z,15.40
2023-05-12T09:50:55.967Z,15.60
2023-05-12T10:01:20.758Z,16.20
2023-05-12T10:11:25.752Z,16.40
2023-05-12T10:21:29.650Z,16.30
2023-05-12T10:31:36.260Z,16.30
2023-05-12T10:41:40.607Z,16.30
2023-05-12T10:51:51.570Z,16.70
2023-05-12T11:02:03.928Z,16.90
2023-05-12T11:12:12.023Z,16.80
2023-05-12T11:22:19.758Z,16.90
2023-05-12T11:32:24.845Z,17.90
2023-05-12T11:42:28.541Z,17.80
2023-05-12T11:52:33.552Z,17.90
2023-05-12T12:02:39.541Z,17.80
2023-05-12T12:12:45.693Z,17.50
2023-05-12T12:22:49.333Z,17.80
2023-05-12T12:32:54.366Z,18.10
2023-05-12T12:42:58.133Z,18.40
2023-05-12T12:53:03.178Z,18.30
2023-05-12T13:03:08.139Z,18.30
2023-05-12T13:13:13.205Z,18.10
2023-05-12T13:23:16.903Z,18.00
2023-05-12T13:33:24.385Z,17.90
2023-05-12T13:43:28.239Z,18.00
2023-05-12T13:53:33.232Z,17.90
2023-05-12T14:03:37.705Z,17.80
2023-05-12T14:13:42.745Z,17.90
2023-05-12T14:23:46.486Z,18.40
2023-05-12T14:33:52.211Z,19.00
2023-05-12T14:43:56.160Z,19.30
2023-05-12T14:54:01.140Z,19.60
2023-05-12T15:04:05.139Z,19.60
2023-05-12T15:14:10.574Z,19.50
2023-05-12T15:24:14.382Z,18.90
2023-05-12T15:34:19.818Z,18.60
2023-05-12T15:44:24.556Z,18.10
2023-05-12T15:54:30.876Z,17.60
2023-05-12T16:04:34.546Z,17.50
2023-05-12T16:14:39.951Z,17.80
2023-05-12T16:24:43.754Z,18.00
2023-05-12T16:34:48.747Z,17.90
2023-05-12T16:44:54.789Z,17.90
2023-05-12T16:55:00.138Z,17.70
2023-05-12T17:05:09.877Z,17.60
2023-05-12T17:15:15.471Z,17.50
2023-05-12T17:25:19.820Z,17.30
2023-05-12T17:35:25.377Z,17.10
2023-05-12T17:45:29.022Z,16.90
2023-05-12T17:55:34.502Z,17.00
2023-05-12T18:05:38.422Z,16.70
2023-05-12T18:15:43.675Z,16.60
2023-05-12T18:25:47.462Z,16.50
2023-05-12T18:35:52.892Z,16.00
2023-05-12T18:45:56.672Z,16.10
2023-05-12T18:56:01.897Z,16.00
2023-05-12T19:06:05.685Z,15.80
2023-05-12T19:16:10.984Z,15.70
2023-05-12T19:26:15.828Z,15.20
2023-05-12T19:36:21.146Z,15.20
2023-05-12T19:46:29.693Z,14.90
2023-05-12T19:56:35.223Z,14.30
2023-05-12T20:06:40.271Z,14.10
2023-05-12T20:16:45.903Z,13.90
2023-05-12T20:26:49.684Z,13.80
2023-05-12T20:36:54.661Z,13.50
2023-05-12T20:46:58.691Z,13.40
2023-05-12T20:57:03.698Z,13.40
2023-05-12T21:07:07.573Z,13.10
2023-05-12T21:17:13.579Z,12.90
2023-05-12T21:27:17.236Z,12.90
2023-05-12T21:37:22.318Z,12.80
2023-05-12T21:47:26.312Z,12.60
2023-05-12T21:57:31.606Z,12.50
2023-05-12T22:07:35.256Z,12.50
2023-05-12T22:17:40.850Z,12.40
2023-05-12T22:27:44.728Z,12.30
2023-05-12T22:37:50.720Z,12.30
2023-05-12T22:47:54.411Z,12.00
2023-05-12T22:57:59.945Z,12.10
2023-05-12T23:08:03.708Z,12.20
2023-05-12T23:18:08.810Z,12.30
2023-05-12T23:28:12.548Z,12.60
2023-05-12T23:38:17.655Z,13.00
2023-05-12T23:48:21.501Z,13.10
2023-05-12T23:58:26.722Z,12.50
